ADDS METAR Data INFO
IDs: Format: Raw Decoded Include TAF

Data at: 1841 UTC 17 Oct 2017

KE16 171835Z AUTO 33008KT 10SM CLR 23/00 A3012 RMK AO2
KE16 171815Z AUTO 33006KT 10SM CLR 23/00 A3012 RMK AO2
KE16 171755Z AUTO 31006KT 10SM CLR 22/00 A3013 RMK AO2
KE16 171735Z AUTO 34003KT 10SM CLR 20/00 A3013 RMK AO2
KE16 171715Z AUTO 00000KT 10SM CLR 19/00 A3013 RMK AO2
KE16 171655Z AUTO 00000KT 10SM CLR 18/00 A3013 RMK AO2
KE16 171635Z AUTO 00000KT 10SM CLR 17/00 A3013 RMK AO2
KE16 171615Z AUTO 00000KT 10SM CLR 15/00 A3013 RMK AO2
KE16 171555Z AUTO 00000KT 10SM CLR 14/02 A3012 RMK AO2
KE16 171535Z AUTO 00000KT 10SM CLR 13/02 A3012 RMK AO2
KE16 171515Z AUTO 00000KT 10SM CLR 11/02 A3011 RMK AO2
KE16 171455Z AUTO 00000KT 10SM CLR 10/02 A3010 RMK AO2
KE16 171435Z AUTO 00000KT 10SM CLR 09/02 A3010 RMK AO2
KE16 171415Z AUTO 00000KT 10SM FEW120 09/02 A3010 RMK AO2
KE16 171355Z AUTO 00000KT 10SM SCT120 10/02 A3010 RMK AO2
KE16 171335Z AUTO 00000KT 10SM -RA FEW037 FEW120 10/02 A3010 RMK AO2
KE16 171315Z AUTO 00000KT 10SM FEW035 09/02 A3009 RMK AO2
KE16 171255Z AUTO 00000KT 10SM CLR 10/02 A3009 RMK AO2
KE16 171235Z AUTO 05003KT 10SM CLR 10/02 A3009 RMK AO2
KE16 171215Z AUTO 00000KT 10SM CLR 10/02 A3008 RMK AO2
KE16 171155Z AUTO 00000KT 10SM CLR 10/02 A3008 RMK AO2
KE16 171135Z AUTO 00000KT 10SM CLR 10/02 A3008 RMK AO2
KE16 171115Z AUTO 00000KT 10SM CLR 10/02 A3008 RMK AO2
KE16 171055Z AUTO 03003KT 10SM -RA CLR 11/02 A3008 RMK AO2
KE16 171035Z AUTO 00000KT 10SM -RA CLR 11/02 A3009 RMK AO2
KE16 171015Z AUTO 00000KT 10SM -RA CLR 11/02 A3009 RMK AO2
KE16 170955Z AUTO 00000KT 10SM -RA CLR 12/02 A3009 RMK AO2
KE16 170935Z AUTO 00000KT 10SM -RA CLR 12/03 A3009 RMK AO2
KE16 170915Z AUTO 00000KT 10SM CLR 12/02 A3010 RMK AO2
KE16 170855Z AUTO 00000KT 10SM CLR 12/02 A3010 RMK AO2
KE16 170835Z AUTO 00000KT 10SM CLR 13/02 A3010 RMK AO2
KE16 170815Z AUTO 00000KT 10SM CLR 13/02 A3010 RMK AO2
KE16 170755Z AUTO 00000KT 10SM -RA CLR 12/02 A3010 RMK AO2
KE16 170735Z AUTO 01003KT 10SM -RA CLR 13/02 A3010 RMK AO2
KE16 170715Z AUTO 00000KT 10SM CLR 12/02 A3010 RMK AO2
KE16 170655Z AUTO 00000KT 10SM -RA CLR 14/02 A3010 RMK AO2
KE16 170635Z AUTO 00000KT 10SM FEW017 SCT050 14/02 A3010 RMK AO2
KE16 170615Z AUTO 36005KT 10SM FEW017 FEW037 SCT050 14/02 A3010 RMK AO2
KE16 170555Z AUTO 00000KT 10SM FEW037 FEW045 14/02 A3010 RMK AO2
KE16 170535Z AUTO 00000KT 10SM CLR 15/02 A3010 RMK AO2
KE16 170515Z AUTO 03004KT 10SM -RA FEW038 15/02 A3010 RMK AO2
KE16 170455Z AUTO 04003KT 10SM CLR 16/02 A3009 RMK AO2
KE16 170435Z AUTO 00000KT 10SM FEW050 17/01 A3009 RMK AO2
KE16 170415Z AUTO 00000KT 10SM FEW021 18/02 A3008 RMK AO2
KE16 170355Z AUTO 34004KT 10SM CLR 18/00 A3008 RMK AO2
KE16 170335Z AUTO 02003KT 10SM CLR 19/00 A3008 RMK AO2
KE16 170315Z AUTO 00000KT 10SM -RA CLR 20/00 A3008 RMK AO2
KE16 170255Z AUTO 00000KT 10SM -RA CLR 22/00 A3006 RMK AO2
KE16 170235Z AUTO 17003KT 10SM -RA CLR 22/00 A3006 RMK AO2
KE16 170215Z AUTO 00000KT 10SM -RA FEW042 23/00 A3006 RMK AO2
KE16 170155Z AUTO 12003KT 10SM -RA CLR 24/00 A3005 RMK AO2
KE16 170135Z AUTO 11003KT 10SM -RA CLR 24/00 A3004 RMK AO2
KE16 170115Z AUTO 32003KT 10SM CLR 28/M01 A3004 RMK AO2
KE16 170055Z AUTO 32005KT 10SM CLR 29/M01 A3004 RMK AO2
KE16 170035Z AUTO 32006KT 10SM CLR 30/M02 A3003 RMK AO2
KE16 170015Z AUTO 32007KT 10SM -RA CLR 30/M03 A3004 RMK AO2
KE16 162355Z AUTO 32008KT 10SM -RA CLR 31/M04 A3004 RMK AO2
KE16 162335Z AUTO 30007KT 10SM -RA CLR 31/M03 A3004 RMK AO2
KE16 162315Z AUTO 32009KT 10SM -RA CLR 31/M03 A3004 RMK AO2
KE16 162255Z AUTO 31007KT 10SM -RA CLR 32/M03 A3005 RMK AO2
KE16 162235Z AUTO 32006KT 10SM -RA CLR 31/M02 A3005 RMK AO2
KE16 162215Z AUTO 35009KT 10SM -RA CLR 31/M02 A3005 RMK AO2
KE16 162155Z AUTO 33007KT 10SM CLR 30/M02 A3006 RMK AO2
KE16 162135Z AUTO 32008KT 10SM -RA CLR 30/00 A3007 RMK AO2
KE16 162115Z AUTO 31007KT 10SM CLR 30/00 A3007 RMK AO2
KE16 162055Z AUTO 31006KT 10SM CLR 31/00 A3008 RMK AO2
KE16 162035Z AUTO 00000KT 10SM -RA CLR 30/M01 A3009 RMK AO2
KE16 162015Z AUTO 31003KT 10SM -RA CLR 29/00 A3010 RMK AO2
KE16 161955Z AUTO 25003KT 10SM -RA CLR 29/00 A3011 RMK AO2
KE16 161935Z AUTO 34005KT 10SM -RA CLR 28/00 A3012 RMK AO2
KE16 161915Z AUTO 33004KT 10SM CLR 27/00 A3013 RMK AO2
KE16 161855Z AUTO 33005KT 10SM -RA CLR 25/00 A3014 RMK AO2
KE16 161835Z AUTO 33007KT 10SM -RA CLR 25/00 A3015 RMK AO2
KE16 161815Z AUTO 31006KT 10SM -RA CLR 24/01 A3016 RMK AO2
KE16 161755Z AUTO 32007KT 10SM CLR 23/00 A3017 RMK AO2
KE16 161735Z AUTO 33007KT 10SM -RA CLR 22/01 A3017 RMK AO2
KE16 161715Z AUTO 34005KT 10SM CLR 20/00 A3018 RMK AO2
KE16 161655Z AUTO 33004KT 10SM CLR 18/00 A3018 RMK AO2
KE16 161635Z AUTO 33003KT 10SM CLR 17/02 A3018 RMK AO2
KE16 161615Z AUTO 00000KT 10SM CLR 15/02 A3018 RMK AO2
KE16 161555Z AUTO 00000KT 10SM -RA CLR 13/02 A3018 RMK AO2
KE16 161535Z AUTO 00000KT 10SM -RA CLR 11/02 A3018 RMK AO2
KE16 161515Z AUTO 00000KT 10SM -RA CLR 10/02 A3017 RMK AO2
KE16 161455Z AUTO 00000KT 9SM -RA CLR 08/02 A3016 RMK AO2
KE16 161435Z AUTO 00000KT 10SM CLR 08/01 A3016 RMK AO2
KE16 161415Z AUTO 00000KT 10SM CLR 08/01 A3016 RMK AO2
KE16 161355Z AUTO 00000KT 10SM FEW041 SCT050 08/01 A3015 RMK AO2
KE16 161335Z AUTO 34004KT 10SM FEW043 SCT050 08/01 A3014 RMK AO2
KE16 161315Z AUTO 36004KT 10SM FEW050 08/01 A3015 RMK AO2
KE16 161255Z AUTO 00000KT 10SM FEW050 08/02 A3014 RMK AO2
KE16 161235Z AUTO 00000KT 10SM -RA FEW050 09/02 A3014 RMK AO2
KE16 161215Z AUTO 04003KT 10SM FEW055 10/02 A3014 RMK AO2
KE16 161155Z AUTO 00000KT 10SM FEW044 09/02 A3013 RMK AO2
KE16 161135Z AUTO 00000KT 10SM -RA CLR 09/02 A3014 RMK AO2
KE16 161115Z AUTO 02003KT 10SM CLR 09/02 A3014 RMK AO2
KE16 161055Z AUTO 35003KT 10SM FEW060 09/02 A3014 RMK AO2
KE16 161035Z AUTO 34003KT 10SM -RA CLR 10/02 A3014 RMK AO2
KE16 161015Z AUTO 36003KT 10SM CLR 10/02 A3014 RMK AO2
KE16 160955Z AUTO 00000KT 10SM -RA CLR 10/02 A3015 RMK AO2
KE16 160935Z AUTO 00000KT 10SM CLR 10/02 A3015 RMK AO2
KE16 160915Z AUTO 00000KT 10SM -RA CLR 11/02 A3015 RMK AO2
KE16 160855Z AUTO 35004KT 10SM -RA CLR 11/02 A3015 RMK AO2
KE16 160835Z AUTO 36004KT 10SM -RA CLR 11/02 A3015 RMK AO2
KE16 160815Z AUTO 00000KT 10SM CLR 12/02 A3014 RMK AO2
KE16 160755Z AUTO 00000KT 10SM CLR 12/02 A3014 RMK AO2
KE16 160735Z AUTO 00000KT 10SM -RA CLR 13/03 A3015 RMK AO2
KE16 160715Z AUTO 00000KT 10SM -RA CLR 12/03 A3015 RMK AO2
KE16 160655Z AUTO 03004KT 10SM -RA CLR 13/03 A3015 RMK AO2